Time;durP1;ratioP1;P1;durP2;ratioP2;P2;SDS_P1;SDS_P2;PMS_P1;PMS_P2;Temp;Humidity;BMP_temperature;BMP_pressure;BME280_temperature;BME280_humidity;BME280_pressure;Samples;Min_cycle;Max_cycle;Signal;HPM_P1;HPM_P2
2022/01/26 00:07:55;;;;;;;22.35;14.43;;;;;;;;;;5074787;28;20204;-74
2022/01/26 00:10:22;;;;;;;28.27;15.15;;;;;;;;;;5089688;28;20224;-74
2022/01/26 00:12:49;;;;;;;21.58;13.73;;;;;;;;;;5078312;28;20205;-74
2022/01/26 00:15:16;;;;;;;20.75;13.50;;;;;;;;;;5077876;28;20193;-74
2022/01/26 00:17:43;;;;;;;18.58;13.30;;;;;;;;;;5085443;28;20652;-74
2022/01/26 00:20:18;;;;;;;19.60;14.00;;;;;;;;;;5083896;28;20221;-74
2022/01/26 00:23:00;;;;;;;23.30;13.90;;;;;;;;;;5080660;28;20637;-74
2022/01/26 00:25:38;;;;;;;22.63;14.48;;;;;;;;;;5086057;28;20189;-75
2022/01/26 00:28:31;;;;;;;20.90;14.07;;;;;;;;;;5075779;28;20267;-74
2022/01/26 00:39:09;;;;;;;24.15;14.35;;;;;;;;;;5042697;28;20217;-74
2022/01/26 00:41:37;;;;;;;22.55;14.80;;;;;;;;;;5076967;28;20728;-74
2022/01/26 00:44:06;;;;;;;23.15;13.23;;;;;;;;;;5086586;28;20197;-73
2022/01/26 00:46:36;;;;;;;26.48;14.00;;;;;;;;;;5080445;28;20209;-73
2022/01/26 00:49:03;;;;;;;20.20;13.13;;;;;;;;;;5088796;28;20205;-74
2022/01/26 00:51:31;;;;;;;24.42;13.02;;;;;;;;;;5079606;28;20687;-74
2022/01/26 00:54:03;;;;;;;23.30;14.23;;;;;;;;;;5082056;28;20542;-75
2022/01/26 00:56:30;;;;;;;19.95;13.93;;;;;;;;;;5071558;28;20195;-74
2022/01/26 00:58:58;;;;;;;26.92;14.35;;;;;;;;;;5081231;28;20197;-74
2022/01/26 01:01:25;;;;;;;18.63;12.95;;;;;;;;;;5082302;28;20205;-74
2022/01/26 01:03:52;;;;;;;20.20;13.23;;;;;;;;;;5080618;28;20193;-74
2022/01/26 01:06:23;;;;;;;23.88;16.45;;;;;;;;;;5076817;28;20217;-74
2022/01/26 01:08:54;;;;;;;17.63;13.48;;;;;;;;;;5083543;28;20620;-75
2022/01/26 01:11:21;;;;;;;20.83;13.50;;;;;;;;;;5077514;28;20190;-75
2022/01/26 01:13:49;;;;;;;23.10;13.48;;;;;;;;;;5071547;28;20630;-75
2022/01/26 01:16:19;;;;;;;25.08;14.50;;;;;;;;;;5086453;28;20193;-75
2022/01/26 01:18:52;;;;;;;22.05;14.50;;;;;;;;;;5086577;28;20228;-75
2022/01/26 01:27:23;;;;;;;20.65;11.73;;;;;;;;;;5086432;28;20596;-74
2022/01/26 01:30:01;;;;;;;21.83;13.90;;;;;;;;;;5085039;28;20224;-74
2022/01/26 01:32:36;;;;;;;25.90;14.68;;;;;;;;;;5087048;28;20250;-75
2022/01/26 01:35:07;;;;;;;21.25;13.98;;;;;;;;;;5088695;28;20566;-74
2022/01/26 01:37:34;;;;;;;18.67;12.43;;;;;;;;;;5077285;28;20194;-74
2022/01/26 01:40:03;;;;;;;23.00;13.77;;;;;;;;;;5080164;28;20186;-74
2022/01/26 01:42:30;;;;;;;22.02;14.63;;;;;;;;;;5084820;28;20201;-74
2022/01/26 01:44:57;;;;;;;21.27;14.85;;;;;;;;;;5086732;28;20210;-75
2022/01/26 01:47:24;;;;;;;24.55;15.90;;;;;;;;;;5090701;28;20201;-75
2022/01/26 01:49:51;;;;;;;19.67;13.70;;;;;;;;;;5083492;28;20225;-76
2022/01/26 01:52:19;;;;;;;17.67;13.57;;;;;;;;;;5090844;28;20208;-76
2022/01/26 01:54:51;;;;;;;19.55;14.38;;;;;;;;;;5086363;28;20202;-76
2022/01/26 01:57:23;;;;;;;19.73;13.07;;;;;;;;;;5093200;28;20226;-76
2022/01/26 01:59:50;;;;;;;20.67;13.85;;;;;;;;;;5087324;28;20194;-76
2022/01/26 02:02:18;;;;;;;21.40;14.30;;;;;;;;;;5085656;28;20194;-76
2022/01/26 02:04:45;;;;;;;20.30;14.60;;;;;;;;;;5086019;28;20205;-76
2022/01/26 02:07:13;;;;;;;18.05;13.70;;;;;;;;;;5088382;28;20205;-76
2022/01/26 02:09:40;;;;;;;22.40;13.40;;;;;;;;;;5089930;28;20673;-76
2022/01/26 02:12:13;;;;;;;22.13;13.65;;;;;;;;;;5087590;28;20197;-76
2022/01/26 02:14:43;;;;;;;22.25;15.07;;;;;;;;;;5090520;28;20733;-75
2022/01/26 02:17:20;;;;;;;19.88;13.50;;;;;;;;;;5090860;28;20198;-74
2022/01/26 02:20:05;;;;;;;21.23;12.73;;;;;;;;;;5091009;28;20694;-74
2022/01/26 02:50:39;;;;;;;23.00;13.88;;;;;;;;;;5079634;28;20278;-75
2022/01/26 02:53:26;;;;;;;19.77;12.82;;;;;;;;;;5076128;28;20212;-75
2022/01/26 02:55:58;;;;;;;23.10;13.52;;;;;;;;;;5089653;28;20201;-75
2022/01/26 02:58:51;;;;;;;24.30;14.45;;;;;;;;;;5089473;28;20201;-74
2022/01/26 03:04:04;;;;;;;21.77;14.15;;;;;;;;;;5080652;28;20193;-74
2022/01/26 03:06:38;;;;;;;18.15;12.35;;;;;;;;;;5080484;28;20221;-73
2022/01/26 03:09:10;;;;;;;21.95;13.75;;;;;;;;;;5077375;28;20201;-75
2022/01/26 03:11:41;;;;;;;21.02;15.30;;;;;;;;;;5079736;28;20583;-75
2022/01/26 03:14:17;;;;;;;23.15;14.32;;;;;;;;;;5085780;28;20664;-75
2022/01/26 03:16:49;;;;;;;17.92;11.90;;;;;;;;;;5077413;28;20229;-75
2022/01/26 03:19:21;;;;;;;20.05;13.82;;;;;;;;;;5073878;28;20215;-75
2022/01/26 03:22:03;;;;;;;17.77;12.82;;;;;;;;;;5084363;28;20293;-75
2022/01/26 03:30:05;;;;;;;21.63;13.95;;;;;;;;;;5082858;28;20228;-75
2022/01/26 03:33:08;;;;;;;25.08;15.80;;;;;;;;;;5078402;28;20623;-75
2022/01/26 03:35:42;;;;;;;22.10;15.77;;;;;;;;;;5075959;28;20190;-75
2022/01/26 03:38:17;;;;;;;28.15;15.30;;;;;;;;;;5091891;28;20679;-75
2022/01/26 03:40:44;;;;;;;19.85;13.13;;;;;;;;;;5081354;28;20208;-75
2022/01/26 03:43:12;;;;;;;24.77;14.85;;;;;;;;;;5080792;28;20198;-74
2022/01/26 03:45:39;;;;;;;18.20;12.30;;;;;;;;;;5087425;28;20213;-74
2022/01/26 03:48:06;;;;;;;21.98;14.45;;;;;;;;;;5088214;28;20201;-74
2022/01/26 03:50:33;;;;;;;22.13;13.80;;;;;;;;;;5086502;28;20278;-75
2022/01/26 03:53:00;;;;;;;23.30;13.63;;;;;;;;;;5086388;28;20202;-74
2022/01/26 03:55:28;;;;;;;22.77;14.55;;;;;;;;;;5085135;28;20240;-74
2022/01/26 03:57:55;;;;;;;24.80;13.75;;;;;;;;;;5073519;28;20263;-75
2022/01/26 04:00:23;;;;;;;21.17;14.48;;;;;;;;;;5084175;28;20244;-74
2022/01/26 04:02:50;;;;;;;20.65;13.68;;;;;;;;;;5084121;28;20193;-75
2022/01/26 04:05:17;;;;;;;24.27;14.93;;;;;;;;;;5084705;28;20201;-74
2022/01/26 04:07:45;;;;;;;28.42;14.65;;;;;;;;;;5089092;28;20189;-75
2022/01/26 04:10:21;;;;;;;23.15;14.15;;;;;;;;;;5075130;28;20214;-74
2022/01/26 04:12:48;;;;;;;29.13;16.42;;;;;;;;;;5071766;28;20673;-74
2022/01/26 04:15:24;;;;;;;26.92;15.05;;;;;;;;;;5082815;28;20197;-74
2022/01/26 04:17:52;;;;;;;31.23;16.48;;;;;;;;;;5090608;28;20189;-74
2022/01/26 04:20:22;;;;;;;31.00;18.23;;;;;;;;;;5079314;28;20186;-74
2022/01/26 04:22:56;;;;;;;29.58;16.67;;;;;;;;;;5085730;28;20197;-74
2022/01/26 04:25:26;;;;;;;35.28;18.08;;;;;;;;;;5081625;28;20263;-75
2022/01/26 04:27:56;;;;;;;32.05;19.20;;;;;;;;;;5076163;28;20209;-76
2022/01/26 04:30:23;;;;;;;35.50;18.95;;;;;;;;;;5076269;28;20845;-74
2022/01/26 04:32:50;;;;;;;37.67;19.90;;;;;;;;;;5088940;28;20201;-77
2022/01/26 04:35:19;;;;;;;34.17;18.38;;;;;;;;;;5082801;28;20563;-75
2022/01/26 04:38:09;;;;;;;32.72;20.30;;;;;;;;;;5082173;28;20207;-74
2022/01/26 04:40:42;;;;;;;40.83;20.85;;;;;;;;;;5078928;28;20193;-74
2022/01/26 04:43:16;;;;;;;32.45;22.83;;;;;;;;;;5085100;28;20255;-75
2022/01/26 04:45:43;;;;;;;33.83;19.20;;;;;;;;;;5081872;28;20300;-75
2022/01/26 04:48:10;;;;;;;46.10;22.92;;;;;;;;;;5088503;28;20190;-75
2022/01/26 04:50:38;;;;;;;41.92;21.00;;;;;;;;;;5087281;28;20680;-76
2022/01/26 04:53:05;;;;;;;42.92;20.92;;;;;;;;;;5090587;28;20234;-75
2022/01/26 04:55:32;;;;;;;47.25;24.38;;;;;;;;;;5089016;28;20608;-75
2022/01/26 04:58:00;;;;;;;47.20;23.00;;;;;;;;;;5084444;28;20197;-75
2022/01/26 05:00:27;;;;;;;42.95;22.17;;;;;;;;;;5073682;28;20232;-75
2022/01/26 05:02:54;;;;;;;39.75;21.90;;;;;;;;;;5086132;28;20203;-76
2022/01/26 05:05:21;;;;;;;40.65;22.23;;;;;;;;;;5076718;28;20201;-76
2022/01/26 05:07:50;;;;;;;49.00;24.30;;;;;;;;;;5089110;28;20193;-76
2022/01/26 05:10:17;;;;;;;45.65;24.02;;;;;;;;;;5069893;28;20222;-76
2022/01/26 05:12:44;;;;;;;50.30;25.77;;;;;;;;;;5070273;28;20197;-74
2022/01/26 05:15:11;;;;;;;56.88;26.80;;;;;;;;;;5070998;28;20202;-75
2022/01/26 05:17:40;;;;;;;59.95;28.85;;;;;;;;;;5086199;28;20186;-74
2022/01/26 05:20:09;;;;;;;57.22;28.80;;;;;;;;;;5071227;28;20664;-74
2022/01/26 05:22:36;;;;;;;46.13;25.10;;;;;;;;;;5072948;28;20202;-75
2022/01/26 05:25:05;;;;;;;58.53;29.10;;;;;;;;;;5081194;28;20216;-75
2022/01/26 05:27:32;;;;;;;51.60;26.33;;;;;;;;;;5082522;28;20640;-75
2022/01/26 05:29:59;;;;;;;50.67;27.55;;;;;;;;;;5082595;28;20610;-74
2022/01/26 05:32:26;;;;;;;51.17;27.27;;;;;;;;;;5086097;28;20216;-74
2022/01/26 05:34:54;;;;;;;49.70;29.10;;;;;;;;;;5082755;28;20260;-74
2022/01/26 05:37:21;;;;;;;63.95;29.30;;;;;;;;;;5076032;28;20202;-74
2022/01/26 05:39:48;;;;;;;54.70;30.38;;;;;;;;;;5071607;28;20562;-75
2022/01/26 05:42:17;;;;;;;54.60;28.05;;;;;;;;;;5080195;28;20194;-73
2022/01/26 05:44:44;;;;;;;51.05;28.30;;;;;;;;;;5083303;28;20217;-75
2022/01/26 05:47:16;;;;;;;62.30;29.90;;;;;;;;;;5088046;28;20645;-75
2022/01/26 05:49:43;;;;;;;66.38;30.83;;;;;;;;;;5072879;28;20198;-75
2022/01/26 05:52:11;;;;;;;60.58;30.23;;;;;;;;;;5085125;28;20209;-74
2022/01/26 05:54:38;;;;;;;56.92;28.73;;;;;;;;;;5076632;28;20198;-75
2022/01/26 05:57:05;;;;;;;55.33;28.83;;;;;;;;;;5084087;28;20194;-76
2022/01/26 05:59:34;;;;;;;52.67;29.63;;;;;;;;;;5073001;28;20187;-76
2022/01/26 06:02:01;;;;;;;61.40;29.85;;;;;;;;;;5089629;28;20194;-76
2022/01/26 06:04:28;;;;;;;56.70;29.17;;;;;;;;;;5094212;28;20189;-76
2022/01/26 06:06:56;;;;;;;55.78;29.27;;;;;;;;;;5084622;28;20279;-76
2022/01/26 06:09:24;;;;;;;61.78;30.55;;;;;;;;;;5078090;28;20240;-76
2022/01/26 06:11:51;;;;;;;60.20;29.60;;;;;;;;;;5089822;28;20623;-76
2022/01/26 06:14:18;;;;;;;62.40;27.85;;;;;;;;;;5084781;28;20649;-75
2022/01/26 06:16:46;;;;;;;62.58;27.25;;;;;;;;;;5086325;28;20225;-76
2022/01/26 06:19:13;;;;;;;58.90;31.08;;;;;;;;;;5092589;28;20223;-75
2022/01/26 06:21:40;;;;;;;52.65;29.00;;;;;;;;;;5080626;28;20193;-76
2022/01/26 06:24:07;;;;;;;63.30;31.63;;;;;;;;;;5079699;28;20190;-76
2022/01/26 06:26:35;;;;;;;54.63;30.38;;;;;;;;;;5086813;28;20653;-75
2022/01/26 06:29:02;;;;;;;57.95;30.95;;;;;;;;;;5076022;28;20217;-75
2022/01/26 06:31:29;;;;;;;54.25;28.27;;;;;;;;;;5083030;28;20233;-76
2022/01/26 06:34:01;;;;;;;65.25;32.55;;;;;;;;;;5092920;28;20201;-75
2022/01/26 06:36:28;;;;;;;56.70;30.23;;;;;;;;;;5080295;28;20219;-75
2022/01/26 06:38:55;;;;;;;63.90;31.75;;;;;;;;;;5082309;28;20243;-75
2022/01/26 06:41:25;;;;;;;61.97;30.00;;;;;;;;;;5085487;28;20197;-75
2022/01/26 06:43:59;;;;;;;54.47;28.38;;;;;;;;;;5086913;28;20198;-74
2022/01/26 06:46:33;;;;;;;52.22;28.65;;;;;;;;;;5082342;28;20236;-75
2022/01/26 06:49:28;;;;;;;51.75;29.02;;;;;;;;;;5088700;28;20198;-75
2022/01/26 06:51:52;;;;;;;55.13;26.90;;;;;;;;;;5078583;28;20220;-75
2022/01/26 06:54:19;;;;;;;56.55;29.75;;;;;;;;;;5086074;28;20739;-75
2022/01/26 06:56:46;;;;;;;61.60;33.60;;;;;;;;;;5083168;28;20684;-73
2022/01/26 06:59:13;;;;;;;56.92;31.48;;;;;;;;;;5083330;28;20630;-73
2022/01/26 07:01:41;;;;;;;65.35;29.83;;;;;;;;;;5084326;28;20205;-73
2022/01/26 07:04:09;;;;;;;53.58;29.27;;;;;;;;;;5088075;28;20212;-74
2022/01/26 07:06:36;;;;;;;51.10;27.77;;;;;;;;;;5087859;28;20193;-74
2022/01/26 07:09:04;;;;;;;62.92;29.60;;;;;;;;;;5085089;28;20231;-73
2022/01/26 07:11:31;;;;;;;57.78;30.95;;;;;;;;;;5077990;28;20209;-75
2022/01/26 07:14:00;;;;;;;60.85;31.00;;;;;;;;;;5094209;28;20194;-74
2022/01/26 07:21:58;;;;;;;56.42;28.25;;;;;;;;;;5077613;28;20205;-73
2022/01/26 07:24:25;;;;;;;56.15;28.70;;;;;;;;;;5081261;28;20205;-73
2022/01/26 07:26:54;;;;;;;59.00;30.65;;;;;;;;;;5078856;28;20255;-74
2022/01/26 07:29:23;;;;;;;54.90;31.17;;;;;;;;;;5083479;28;20657;-73
2022/01/26 07:31:51;;;;;;;65.57;32.03;;;;;;;;;;5080615;28;20222;-74
2022/01/26 07:34:22;;;;;;;53.13;28.02;;;;;;;;;;5081314;28;20201;-74
2022/01/26 07:36:52;;;;;;;51.58;27.05;;;;;;;;;;5090134;28;20248;-74
2022/01/26 07:39:29;;;;;;;62.75;31.77;;;;;;;;;;5087644;28;20209;-74
2022/01/26 07:41:57;;;;;;;62.83;30.13;;;;;;;;;;5085711;28;20680;-75
2022/01/26 07:44:24;;;;;;;67.55;33.85;;;;;;;;;;5085236;28;20603;-74
2022/01/26 07:46:51;;;;;;;70.47;32.92;;;;;;;;;;5082510;28;20194;-74
2022/01/26 07:49:19;;;;;;;70.13;32.17;;;;;;;;;;5088040;28;20206;-74
2022/01/26 07:51:48;;;;;;;57.33;29.58;;;;;;;;;;5080439;28;20213;-74
2022/01/26 07:54:16;;;;;;;57.30;28.02;;;;;;;;;;5078747;28;20654;-74
2022/01/26 07:56:44;;;;;;;62.25;32.58;;;;;;;;;;5079470;28;20206;-74
2022/01/26 07:59:11;;;;;;;56.92;30.48;;;;;;;;;;5083085;28;20202;-75
2022/01/26 08:01:38;;;;;;;58.03;31.77;;;;;;;;;;5078600;28;20205;-75
2022/01/26 08:04:05;;;;;;;57.40;30.40;;;;;;;;;;5077153;28;20618;-75
2022/01/26 08:06:34;;;;;;;65.72;32.47;;;;;;;;;;5080860;28;20566;-74
2022/01/26 08:09:01;;;;;;;62.35;29.30;;;;;;;;;;5087069;28;20197;-74
2022/01/26 08:11:28;;;;;;;56.40;29.60;;;;;;;;;;5090648;28;20224;-74
2022/01/26 08:13:56;;;;;;;60.92;29.13;;;;;;;;;;5072150;28;20199;-75
2022/01/26 08:16:23;;;;;;;63.35;32.08;;;;;;;;;;5087430;28;20241;-74
2022/01/26 08:18:50;;;;;;;64.22;29.08;;;;;;;;;;5091330;28;20198;-74
2022/01/26 08:21:18;;;;;;;65.47;31.60;;;;;;;;;;5079121;28;20205;-75
2022/01/26 08:23:48;;;;;;;61.47;29.67;;;;;;;;;;5078686;28;20301;-75
2022/01/26 08:26:18;;;;;;;58.50;29.75;;;;;;;;;;5078414;28;20201;-73
2022/01/26 08:28:51;;;;;;;58.97;31.92;;;;;;;;;;5090470;28;20208;-75
2022/01/26 08:31:18;;;;;;;62.08;30.52;;;;;;;;;;5081859;28;20218;-73
2022/01/26 08:33:45;;;;;;;72.70;31.75;;;;;;;;;;5085195;28;20213;-74
2022/01/26 08:36:12;;;;;;;59.17;29.70;;;;;;;;;;5089586;28;20204;-74
2022/01/26 08:38:39;;;;;;;55.58;28.48;;;;;;;;;;5090923;28;20660;-74
2022/01/26 08:41:09;;;;;;;59.65;29.35;;;;;;;;;;5085654;28;20352;-75
2022/01/26 08:43:37;;;;;;;61.88;29.58;;;;;;;;;;5089484;28;20262;-74
2022/01/26 08:46:04;;;;;;;58.13;29.58;;;;;;;;;;5089692;28;20225;-74
2022/01/26 08:48:31;;;;;;;62.92;30.75;;;;;;;;;;5088598;28;20202;-74
2022/01/26 08:50:58;;;;;;;56.35;31.45;;;;;;;;;;5079186;28;20205;-73
2022/01/26 08:53:25;;;;;;;64.57;31.10;;;;;;;;;;5071014;28;20237;-74
2022/01/26 08:55:52;;;;;;;64.28;31.63;;;;;;;;;;5086426;28;20193;-75
2022/01/26 08:58:21;;;;;;;56.35;29.90;;;;;;;;;;5094392;28;20666;-74
2022/01/26 09:00:48;;;;;;;54.33;29.42;;;;;;;;;;5081400;28;20480;-74
2022/01/26 09:03:15;;;;;;;67.68;33.35;;;;;;;;;;5088216;28;20201;-74
2022/01/26 09:05:42;;;;;;;56.60;28.42;;;;;;;;;;5075944;28;20194;-75
2022/01/26 09:08:09;;;;;;;53.50;28.83;;;;;;;;;;5076457;28;20200;-74
2022/01/26 09:10:39;;;;;;;60.83;31.83;;;;;;;;;;5081978;28;20205;-74
2022/01/26 09:13:06;;;;;;;65.03;32.03;;;;;;;;;;5078952;28;20214;-74
2022/01/26 09:15:34;;;;;;;59.30;29.77;;;;;;;;;;5089559;28;20564;-74
2022/01/26 09:18:04;;;;;;;64.97;31.83;;;;;;;;;;5085981;28;20243;-74
2022/01/26 09:20:33;;;;;;;60.95;29.90;;;;;;;;;;5087050;28;20308;-74
2022/01/26 09:23:00;;;;;;;56.13;29.50;;;;;;;;;;5071133;28;20214;-75
2022/01/26 09:25:27;;;;;;;61.15;30.02;;;;;;;;;;5075969;28;20205;-74
2022/01/26 09:27:56;;;;;;;60.97;28.73;;;;;;;;;;5078367;28;20201;-75
2022/01/26 09:30:23;;;;;;;68.10;33.85;;;;;;;;;;5068709;28;20198;-72
2022/01/26 09:32:52;;;;;;;56.30;29.42;;;;;;;;;;5089296;28;20210;-75
2022/01/26 09:35:19;;;;;;;62.78;30.73;;;;;;;;;;5082138;28;20244;-75
2022/01/26 09:37:46;;;;;;;64.10;33.17;;;;;;;;;;5087887;28;20204;-75
2022/01/26 09:40:13;;;;;;;64.00;32.25;;;;;;;;;;5078951;28;20607;-75
2022/01/26 09:42:42;;;;;;;61.92;31.05;;;;;;;;;;5079597;28;20194;-74
2022/01/26 09:45:10;;;;;;;60.88;32.72;;;;;;;;;;5090220;28;20228;-74
2022/01/26 09:47:38;;;;;;;63.13;32.03;;;;;;;;;;5083283;28;20201;-74
2022/01/26 09:50:06;;;;;;;72.72;32.53;;;;;;;;;;5088353;28;20284;-74
2022/01/26 09:52:40;;;;;;;58.95;30.13;;;;;;;;;;5086994;28;20212;-74
2022/01/26 09:55:08;;;;;;;69.57;33.63;;;;;;;;;;5075383;28;20194;-74
2022/01/26 09:57:36;;;;;;;77.47;33.80;;;;;;;;;;5076504;28;20647;-74
2022/01/26 10:00:05;;;;;;;71.95;31.80;;;;;;;;;;5082619;28;20195;-76
2022/01/26 10:02:33;;;;;;;73.18;36.00;;;;;;;;;;5091415;28;20653;-74
2022/01/26 10:05:04;;;;;;;68.55;32.35;;;;;;;;;;5086496;28;20199;-75
2022/01/26 10:07:46;;;;;;;72.70;33.28;;;;;;;;;;5077970;28;20443;-75
2022/01/26 10:15:26;;;;;;;65.50;32.85;;;;;;;;;;5073327;28;20312;-74
2022/01/26 10:16:11;;;;;;;72.45;33.00;;;;;;;;;;5075224;28;20660;-74
2022/01/26 10:18:38;;;;;;;73.53;35.05;;;;;;;;;;5084984;28;20204;-74
2022/01/26 10:21:08;;;;;;;77.20;34.80;;;;;;;;;;5092540;28;20204;-74
2022/01/26 10:23:39;;;;;;;64.97;32.83;;;;;;;;;;5094159;28;20250;-74
2022/01/26 10:26:06;;;;;;;68.40;35.28;;;;;;;;;;5079751;28;20194;-75
2022/01/26 10:28:43;;;;;;;73.10;35.17;;;;;;;;;;5080413;28;20198;-74
2022/01/26 10:31:14;;;;;;;75.60;34.42;;;;;;;;;;5083499;28;20197;-74
2022/01/26 10:33:41;;;;;;;78.25;35.65;;;;;;;;;;5089339;28;20213;-75
2022/01/26 10:36:08;;;;;;;69.15;33.97;;;;;;;;;;5084067;28;20197;-74
2022/01/26 10:38:35;;;;;;;69.38;33.45;;;;;;;;;;5084318;28;20547;-74
2022/01/26 10:41:04;;;;;;;68.63;35.78;;;;;;;;;;5078637;28;20190;-75
2022/01/26 10:43:32;;;;;;;79.00;34.53;;;;;;;;;;5087666;28;20194;-76
2022/01/26 10:46:04;;;;;;;69.53;34.03;;;;;;;;;;5082185;28;20307;-74
2022/01/26 10:48:40;;;;;;;75.65;35.03;;;;;;;;;;5083621;28;20661;-75
2022/01/26 10:53:58;;;;;;;73.53;35.47;;;;;;;;;;5091003;28;20462;-75
2022/01/26 10:56:26;;;;;;;77.60;34.45;;;;;;;;;;5072729;28;20285;-74
2022/01/26 10:58:53;;;;;;;70.95;35.08;;;;;;;;;;5085088;28;20254;-74
2022/01/26 11:01:20;;;;;;;69.50;33.65;;;;;;;;;;5086721;28;20240;-75
2022/01/26 11:03:47;;;;;;;68.25;33.33;;;;;;;;;;5084481;28;20707;-74
2022/01/26 11:06:18;;;;;;;70.25;34.08;;;;;;;;;;5078950;28;20194;-74
2022/01/26 11:08:46;;;;;;;75.97;35.00;;;;;;;;;;5083357;28;20246;-73
2022/01/26 11:11:19;;;;;;;67.57;34.40;;;;;;;;;;5084299;28;20198;-74
2022/01/26 11:13:47;;;;;;;76.18;34.72;;;;;;;;;;5088428;28;20309;-73
2022/01/26 11:16:15;;;;;;;69.18;32.72;;;;;;;;;;5089169;28;20194;-74
2022/01/26 11:18:46;;;;;;;71.85;34.35;;;;;;;;;;5077639;28;20210;-72
2022/01/26 11:21:25;;;;;;;72.95;32.95;;;;;;;;;;5090971;28;20711;-72
2022/01/26 11:23:53;;;;;;;73.28;35.33;;;;;;;;;;5072818;28;20673;-72
2022/01/26 11:26:23;;;;;;;70.50;31.58;;;;;;;;;;5086677;28;20202;-73
2022/01/26 11:28:51;;;;;;;77.45;38.58;;;;;;;;;;5081741;28;20653;-73
2022/01/26 11:31:19;;;;;;;79.13;36.85;;;;;;;;;;5099735;28;20208;-74
2022/01/26 11:33:49;;;;;;;66.57;32.15;;;;;;;;;;5084941;28;20304;-73
2022/01/26 11:36:18;;;;;;;80.63;35.85;;;;;;;;;;5090113;28;20198;-74
2022/01/26 11:42:11;;;;;;;82.20;36.88;;;;;;;;;;5086516;28;20224;-75
2022/01/26 11:47:30;;;;;;;73.15;34.47;;;;;;;;;;5079494;28;20290;-75
2022/01/26 11:50:04;;;;;;;74.57;32.80;;;;;;;;;;5087926;28;20658;-74
2022/01/26 11:52:35;;;;;;;78.07;33.83;;;;;;;;;;5086847;28;20266;-76
2022/01/26 11:55:03;;;;;;;66.45;33.03;;;;;;;;;;5084740;28;20203;-75
2022/01/26 11:57:39;;;;;;;76.68;31.33;;;;;;;;;;5089789;28;20652;-74
2022/01/26 12:00:12;;;;;;;69.18;36.05;;;;;;;;;;5089144;28;20189;-75
2022/01/26 12:02:51;;;;;;;60.15;30.52;;;;;;;;;;5071397;28;20194;-74
2022/01/26 12:05:21;;;;;;;70.50;33.10;;;;;;;;;;5080918;28;20497;-75
2022/01/26 12:07:49;;;;;;;72.82;33.92;;;;;;;;;;5076885;28;20194;-75
2022/01/26 12:10:26;;;;;;;71.50;32.80;;;;;;;;;;5071852;28;20201;-74
2022/01/26 12:13:00;;;;;;;71.55;30.80;;;;;;;;;;5086840;28;20378;-73
2022/01/26 12:15:31;;;;;;;72.68;34.92;;;;;;;;;;5073969;28;20202;-74
2022/01/26 12:18:14;;;;;;;76.40;36.10;;;;;;;;;;5074851;28;20194;-74
2022/01/26 12:32:29;;;;;;;75.70;34.95;;;;;;;;;;5079641;28;20258;-76
2022/01/26 12:35:04;;;;;;;72.18;33.97;;;;;;;;;;5090219;28;20224;-76
2022/01/26 12:37:48;;;;;;;68.50;34.55;;;;;;;;;;5084420;28;20221;-75
2022/01/26 12:43:06;;;;;;;68.85;31.50;;;;;;;;;;5089790;28;20246;-77
2022/01/26 12:45:34;;;;;;;71.35;30.63;;;;;;;;;;5085800;28;20233;-76
2022/01/26 12:48:02;;;;;;;69.43;32.15;;;;;;;;;;5078669;28;20202;-76
2022/01/26 12:50:29;;;;;;;64.75;31.70;;;;;;;;;;5082347;28;20200;-75
2022/01/26 12:52:57;;;;;;;66.75;31.67;;;;;;;;;;5078658;28;20221;-75
2022/01/26 12:55:26;;;;;;;68.72;32.83;;;;;;;;;;5084474;28;20565;-75
2022/01/26 12:57:54;;;;;;;68.78;32.25;;;;;;;;;;5088697;28;20209;-75
2022/01/26 13:00:23;;;;;;;63.08;32.78;;;;;;;;;;5081483;28;20190;-75
2022/01/26 13:02:51;;;;;;;60.40;30.67;;;;;;;;;;5078274;28;20702;-75
2022/01/26 13:05:23;;;;;;;66.75;30.88;;;;;;;;;;5086980;28;20201;-74
2022/01/26 13:07:59;;;;;;;71.93;34.00;;;;;;;;;;5075575;28;20193;-74
2022/01/26 13:10:28;;;;;;;70.32;32.40;;;;;;;;;;5076023;28;20194;-75
2022/01/26 13:12:55;;;;;;;62.92;30.55;;;;;;;;;;5077199;28;20596;-74
2022/01/26 13:15:39;;;;;;;63.78;30.67;;;;;;;;;;5068234;28;20680;-73
2022/01/26 13:18:19;;;;;;;60.40;30.40;;;;;;;;;;5073609;28;20292;-74
2022/01/26 13:21:08;;;;;;;55.50;26.65;;;;;;;;;;5085568;28;20193;-73
2022/01/26 13:23:45;;;;;;;64.25;28.70;;;;;;;;;;5071495;28;20232;-74
2022/01/26 13:26:20;;;;;;;56.80;28.00;;;;;;;;;;5088347;28;20310;-73
2022/01/26 13:29:00;;;;;;;55.05;28.70;;;;;;;;;;5075446;28;20292;-73
2022/01/26 13:32:09;;;;;;;60.83;26.85;;;;;;;;;;5088782;28;20197;-72
2022/01/26 13:34:52;;;;;;;52.17;26.50;;;;;;;;;;5089406;28;20217;-74
2022/01/26 13:37:36;;;;;;;53.50;25.98;;;;;;;;;;5072376;28;20698;-73
2022/01/26 13:40:20;;;;;;;63.13;29.50;;;;;;;;;;5084835;28;20253;-74
2022/01/26 13:43:30;;;;;;;56.45;26.15;;;;;;;;;;5080734;28;20225;-74
2022/01/26 13:46:29;;;;;;;51.15;25.52;;;;;;;;;;5075421;28;20929;-73
2022/01/26 13:49:17;;;;;;;52.55;27.30;;;;;;;;;;5081129;28;20205;-73
2022/01/26 13:51:59;;;;;;;49.90;24.88;;;;;;;;;;5090010;28;20206;-74
2022/01/26 13:57:25;;;;;;;55.42;26.60;;;;;;;;;;5045891;28;20197;-74
2022/01/26 13:59:55;;;;;;;54.13;25.27;;;;;;;;;;5081574;28;20201;-74
2022/01/26 14:02:23;;;;;;;59.13;25.65;;;;;;;;;;5083210;28;20288;-74
2022/01/26 14:04:50;;;;;;;46.85;24.35;;;;;;;;;;5079648;28;20692;-74
2022/01/26 14:07:17;;;;;;;45.03;27.08;;;;;;;;;;5086127;28;20200;-73
2022/01/26 14:09:46;;;;;;;49.42;25.42;;;;;;;;;;5087111;28;20297;-73
2022/01/26 14:12:16;;;;;;;56.10;26.50;;;;;;;;;;5086488;28;20209;-74
2022/01/26 14:14:45;;;;;;;43.13;25.00;;;;;;;;;;5088782;28;20264;-74
2022/01/26 14:17:16;;;;;;;53.03;23.73;;;;;;;;;;5079591;28;20668;-73
2022/01/26 14:20:07;;;;;;;54.03;26.42;;;;;;;;;;5070846;28;20198;-73
2022/01/26 14:22:39;;;;;;;51.00;23.40;;;;;;;;;;5076271;28;20286;-73
2022/01/26 14:25:17;;;;;;;49.00;24.83;;;;;;;;;;5071096;28;20194;-73
2022/01/26 14:27:47;;;;;;;46.17;25.00;;;;;;;;;;5080008;28;20198;-73
2022/01/26 14:30:31;;;;;;;56.28;26.10;;;;;;;;;;5086251;28;20202;-74
2022/01/26 14:33:37;;;;;;;42.50;23.20;;;;;;;;;;5083684;28;20194;-73
2022/01/26 14:55:52;;;;;;;46.50;23.80;;;;;;;;;;5085965;28;20198;-74
2022/01/26 15:10:02;;;;;;;36.17;19.95;;;;;;;;;;5084304;28;20236;-75
2022/01/26 15:40:23;;;;;;;45.53;22.45;;;;;;;;;;5082933;28;20616;-74
2022/01/26 15:51:06;;;;;;;33.38;18.30;;;;;;;;;;5074406;28;20204;-74
2022/01/26 16:04:15;;;;;;;37.05;19.73;;;;;;;;;;5015794;28;20300;-75
2022/01/26 16:05:21;;;;;;;31.48;19.50;;;;;;;;;;5079431;28;20196;-75
2022/01/26 16:07:53;;;;;;;38.53;18.90;;;;;;;;;;5069350;28;20292;-77
2022/01/26 16:21:25;;;;;;;43.30;20.55;;;;;;;;;;5082113;28;20601;-75
2022/01/26 16:27:09;;;;;;;37.67;20.23;;;;;;;;;;5078847;28;20205;-74
2022/01/26 16:38:16;;;;;;;37.25;22.13;;;;;;;;;;5068427;28;20208;-73
2022/01/26 17:11:06;;;;;;;39.35;19.98;;;;;;;;;;5077925;28;20201;-73
2022/01/26 17:12:08;;;;;;;36.80;19.67;;;;;;;;;;5055763;28;20239;-75
2022/01/26 18:07:22;;;;;;;44.05;21.88;;;;;;;;;;5087849;28;20253;-75
2022/01/26 18:15:34;;;;;;;46.40;22.58;;;;;;;;;;5084630;28;20233;-76
2022/01/26 18:22:22;;;;;;;54.17;24.08;;;;;;;;;;5087004;28;20551;-75
2022/01/26 18:26:44;;;;;;;48.03;23.33;;;;;;;;;;5012874;28;20227;-76
2022/01/26 18:40:32;;;;;;;43.55;25.45;;;;;;;;;;5085992;28;20660;-76
2022/01/26 18:51:22;;;;;;;44.28;22.38;;;;;;;;;;5081180;28;20188;-75
2022/01/26 18:53:49;;;;;;;38.53;22.05;;;;;;;;;;5080062;28;20223;-74
2022/01/26 18:56:16;;;;;;;44.42;22.40;;;;;;;;;;5087759;28;20556;-74
2022/01/26 18:58:44;;;;;;;40.42;23.85;;;;;;;;;;5076169;28;20646;-74
2022/01/26 19:01:11;;;;;;;42.45;22.90;;;;;;;;;;5076052;28;20209;-74
2022/01/26 19:03:38;;;;;;;42.67;23.05;;;;;;;;;;5078473;28;20221;-75
2022/01/26 19:06:05;;;;;;;43.78;22.88;;;;;;;;;;5092461;28;20197;-74
2022/01/26 19:08:33;;;;;;;41.30;22.02;;;;;;;;;;5084288;28;20677;-75
2022/01/26 19:11:00;;;;;;;40.42;22.25;;;;;;;;;;5075444;28;20205;-76
2022/01/26 19:13:30;;;;;;;39.88;21.33;;;;;;;;;;5080548;28;20611;-74
2022/01/26 19:16:03;;;;;;;38.63;21.25;;;;;;;;;;5081519;28;20275;-75
2022/01/26 19:18:46;;;;;;;38.15;22.08;;;;;;;;;;5079952;28;20273;-75
2022/01/26 19:21:20;;;;;;;40.67;20.27;;;;;;;;;;5085374;28;20194;-75
2022/01/26 19:24:04;;;;;;;37.05;20.35;;;;;;;;;;5082338;28;20193;-75
2022/01/26 19:26:36;;;;;;;42.05;20.42;;;;;;;;;;5074950;28;20536;-74
2022/01/26 19:29:13;;;;;;;40.17;22.15;;;;;;;;;;5080797;28;20280;-75
2022/01/26 19:40:48;;;;;;;34.90;20.52;;;;;;;;;;5045897;28;20695;-74
2022/01/26 19:46:11;;;;;;;43.15;21.63;;;;;;;;;;5082959;28;20224;-75
2022/01/26 19:51:23;;;;;;;46.50;22.58;;;;;;;;;;5082185;28;20235;-76
2022/01/26 19:53:50;;;;;;;37.50;21.42;;;;;;;;;;5086772;28;20193;-75
2022/01/26 19:56:19;;;;;;;35.03;20.65;;;;;;;;;;5085523;28;20189;-75